sensor_id;sensor_type;location;lat;lon;timestamp;pressure;altitude;pressure_sealevel;temperature;humidity
20023;BME280;10172;42.054;24.546;2024-01-30T00:00:32;100314.56;;;2.41;51.38
20023;BME280;10172;42.054;24.546;2024-01-30T00:02:57;100324.19;;;2.13;51.50
20023;BME280;10172;42.054;24.546;2024-01-30T00:05:23;100326.88;;;1.84;51.89
20023;BME280;10172;42.054;24.546;2024-01-30T00:07:48;100336.03;;;1.29;53.77
20023;BME280;10172;42.054;24.546;2024-01-30T00:10:13;100327.91;;;1.39;54.17
20023;BME280;10172;42.054;24.546;2024-01-30T00:12:39;100332.78;;;1.27;54.28
20023;BME280;10172;42.054;24.546;2024-01-30T00:15:04;100322.41;;;1.34;54.02
20023;BME280;10172;42.054;24.546;2024-01-30T00:17:30;100330.50;;;1.10;55.55
20023;BME280;10172;42.054;24.546;2024-01-30T00:19:56;100330.44;;;1.32;54.88
20023;BME280;10172;42.054;24.546;2024-01-30T00:22:21;100326.19;;;1.61;53.52
20023;BME280;10172;42.054;24.546;2024-01-30T00:24:47;100329.91;;;0.71;56.15
20023;BME280;10172;42.054;24.546;2024-01-30T00:27:12;100335.16;;;0.48;57.46
20023;BME280;10172;42.054;24.546;2024-01-30T00:29:37;100344.75;;;0.33;58.18
20023;BME280;10172;42.054;24.546;2024-01-30T00:32:03;100337.09;;;0.91;56.11
20023;BME280;10172;42.054;24.546;2024-01-30T00:34:28;100340.00;;;1.55;54.21
20023;BME280;10172;42.054;24.546;2024-01-30T00:36:53;100338.72;;;1.80;52.24
20023;BME280;10172;42.054;24.546;2024-01-30T00:39:19;100340.88;;;0.89;54.12
20023;BME280;10172;42.054;24.546;2024-01-30T00:41:45;100344.41;;;0.96;54.78
20023;BME280;10172;42.054;24.546;2024-01-30T00:44:10;100344.34;;;1.48;52.71
20023;BME280;10172;42.054;24.546;2024-01-30T00:46:36;100342.47;;;0.75;55.16
20023;BME280;10172;42.054;24.546;2024-01-30T00:49:01;100355.25;;;1.07;54.78
20023;BME280;10172;42.054;24.546;2024-01-30T00:51:27;100350.13;;;0.77;55.54
20023;BME280;10172;42.054;24.546;2024-01-30T00:53:55;100343.75;;;0.34;57.15
20023;BME280;10172;42.054;24.546;2024-01-30T00:56:20;100348.41;;;0.24;57.56
20023;BME280;10172;42.054;24.546;2024-01-30T00:58:46;100349.34;;;0.31;57.11
20023;BME280;10172;42.054;24.546;2024-01-30T01:01:11;100352.94;;;0.30;57.61
20023;BME280;10172;42.054;24.546;2024-01-30T01:03:37;100342.22;;;0.62;55.95
20023;BME280;10172;42.054;24.546;2024-01-30T01:06:03;100350.09;;;0.17;58.30
20023;BME280;10172;42.054;24.546;2024-01-30T01:08:28;100350.31;;;0.75;57.26
20023;BME280;10172;42.054;24.546;2024-01-30T01:10:53;100346.59;;;1.07;54.74
20023;BME280;10172;42.054;24.546;2024-01-30T01:13:19;100346.78;;;1.20;54.45
20023;BME280;10172;42.054;24.546;2024-01-30T01:15:44;100344.16;;;1.05;54.09
20023;BME280;10172;42.054;24.546;2024-01-30T01:18:09;100346.66;;;0.16;57.35
20023;BME280;10172;42.054;24.546;2024-01-30T01:20:35;100342.94;;;0.56;56.59
20023;BME280;10172;42.054;24.546;2024-01-30T01:23:00;100348.13;;;0.19;57.40
20023;BME280;10172;42.054;24.546;2024-01-30T01:25:26;100343.63;;;0.73;55.81
20023;BME280;10172;42.054;24.546;2024-01-30T01:27:51;100341.41;;;0.84;55.07
20023;BME280;10172;42.054;24.546;2024-01-30T01:30:18;100337.66;;;1.01;54.73
20023;BME280;10172;42.054;24.546;2024-01-30T01:32:49;100337.19;;;0.60;56.84
20023;BME280;10172;42.054;24.546;2024-01-30T01:35:24;100329.38;;;0.38;57.94
20023;BME280;10172;42.054;24.546;2024-01-30T01:37:54;100323.66;;;0.57;56.53
20023;BME280;10172;42.054;24.546;2024-01-30T01:40:26;100323.56;;;0.65;56.43
20023;BME280;10172;42.054;24.546;2024-01-30T01:42:53;100322.44;;;0.82;55.63
20023;BME280;10172;42.054;24.546;2024-01-30T01:45:19;100325.16;;;0.06;58.69
20023;BME280;10172;42.054;24.546;2024-01-30T01:47:47;100330.25;;;0.90;55.57
20023;BME280;10172;42.054;24.546;2024-01-30T01:50:14;100322.94;;;0.63;56.28
20023;BME280;10172;42.054;24.546;2024-01-30T01:52:43;100320.91;;;0.05;57.85
20023;BME280;10172;42.054;24.546;2024-01-30T01:55:10;100316.00;;;-0.21;59.36
20023;BME280;10172;42.054;24.546;2024-01-30T01:57:36;100322.84;;;-0.20;58.90
20023;BME280;10172;42.054;24.546;2024-01-30T02:00:02;100317.31;;;0.06;58.24
20023;BME280;10172;42.054;24.546;2024-01-30T02:02:30;100318.13;;;0.29;57.94
20023;BME280;10172;42.054;24.546;2024-01-30T02:05:00;100322.56;;;-0.02;59.03
20023;BME280;10172;42.054;24.546;2024-01-30T02:07:26;100315.22;;;-0.68;61.00
20023;BME280;10172;42.054;24.546;2024-01-30T02:09:52;100326.78;;;0.07;59.71
20023;BME280;10172;42.054;24.546;2024-01-30T02:12:18;100333.63;;;-0.15;59.52
20023;BME280;10172;42.054;24.546;2024-01-30T02:14:47;100326.53;;;-0.84;62.16
20023;BME280;10172;42.054;24.546;2024-01-30T02:17:13;100323.09;;;-0.92;63.13
20023;BME280;10172;42.054;24.546;2024-01-30T02:19:39;100314.66;;;-0.17;60.18
20023;BME280;10172;42.054;24.546;2024-01-30T02:22:05;100328.41;;;0.08;59.18
20023;BME280;10172;42.054;24.546;2024-01-30T02:24:31;100319.00;;;0.22;58.58
20023;BME280;10172;42.054;24.546;2024-01-30T02:26:56;100318.66;;;0.25;58.16
20023;BME280;10172;42.054;24.546;2024-01-30T02:29:21;100320.50;;;0.61;56.83
20023;BME280;10172;42.054;24.546;2024-01-30T02:31:47;100317.81;;;0.69;56.42
20023;BME280;10172;42.054;24.546;2024-01-30T02:34:13;100319.59;;;0.32;57.82
20023;BME280;10172;42.054;24.546;2024-01-30T02:36:38;100320.13;;;0.05;58.34
20023;BME280;10172;42.054;24.546;2024-01-30T02:39:03;100324.34;;;0.51;57.11
20023;BME280;10172;42.054;24.546;2024-01-30T02:41:29;100329.81;;;0.19;57.87
20023;BME280;10172;42.054;24.546;2024-01-30T02:43:54;100328.69;;;0.13;58.06
20023;BME280;10172;42.054;24.546;2024-01-30T02:46:20;100328.97;;;-0.05;58.86
20023;BME280;10172;42.054;24.546;2024-01-30T02:48:45;100327.13;;;0.04;58.99
20023;BME280;10172;42.054;24.546;2024-01-30T02:51:10;100319.13;;;0.28;57.99
20023;BME280;10172;42.054;24.546;2024-01-30T02:53:36;100331.31;;;0.13;59.06
20023;BME280;10172;42.054;24.546;2024-01-30T02:56:02;100331.09;;;0.00;58.88
20023;BME280;10172;42.054;24.546;2024-01-30T02:58:28;100334.66;;;-0.32;60.77
20023;BME280;10172;42.054;24.546;2024-01-30T03:00:53;100331.19;;;0.07;59.52
20023;BME280;10172;42.054;24.546;2024-01-30T03:03:19;100334.59;;;0.38;58.16
20023;BME280;10172;42.054;24.546;2024-01-30T03:05:44;100335.53;;;0.45;57.71
20023;BME280;10172;42.054;24.546;2024-01-30T03:08:09;100339.56;;;0.70;56.85
20023;BME280;10172;42.054;24.546;2024-01-30T03:10:35;100329.72;;;0.72;56.78
20023;BME280;10172;42.054;24.546;2024-01-30T03:13:00;100333.88;;;0.44;58.03
20023;BME280;10172;42.054;24.546;2024-01-30T03:15:26;100339.63;;;0.62;57.43
20023;BME280;10172;42.054;24.546;2024-01-30T03:17:51;100339.16;;;0.13;59.84
20023;BME280;10172;42.054;24.546;2024-01-30T03:20:16;100337.75;;;0.33;58.94
20023;BME280;10172;42.054;24.546;2024-01-30T03:22:42;100336.72;;;0.94;56.76
20023;BME280;10172;42.054;24.546;2024-01-30T03:25:07;100334.69;;;0.67;57.53
20023;BME280;10172;42.054;24.546;2024-01-30T03:27:33;100327.69;;;0.82;57.29
20023;BME280;10172;42.054;24.546;2024-01-30T03:29:58;100332.25;;;0.20;59.99
20023;BME280;10172;42.054;24.546;2024-01-30T03:32:23;100335.59;;;1.11;56.55
20023;BME280;10172;42.054;24.546;2024-01-30T03:34:49;100334.06;;;1.31;55.48
20023;BME280;10172;42.054;24.546;2024-01-30T03:37:15;100331.03;;;0.91;57.30
20023;BME280;10172;42.054;24.546;2024-01-30T03:39:40;100341.38;;;1.36;55.81
20023;BME280;10172;42.054;24.546;2024-01-30T03:42:05;100332.25;;;1.47;54.96
20023;BME280;10172;42.054;24.546;2024-01-30T03:44:31;100337.13;;;1.20;55.55
20023;BME280;10172;42.054;24.546;2024-01-30T03:46:56;100342.00;;;1.23;56.24
20023;BME280;10172;42.054;24.546;2024-01-30T03:49:21;100336.75;;;1.53;55.96
20023;BME280;10172;42.054;24.546;2024-01-30T03:51:47;100342.09;;;1.59;55.85
20023;BME280;10172;42.054;24.546;2024-01-30T03:54:12;100345.97;;;1.49;56.04
20023;BME280;10172;42.054;24.546;2024-01-30T03:56:38;100340.66;;;1.57;56.35
20023;BME280;10172;42.054;24.546;2024-01-30T03:59:03;100337.41;;;1.25;56.96
20023;BME280;10172;42.054;24.546;2024-01-30T04:01:29;100334.66;;;1.77;54.89
20023;BME280;10172;42.054;24.546;2024-01-30T04:03:54;100333.59;;;2.29;52.90
20023;BME280;10172;42.054;24.546;2024-01-30T04:06:20;100340.25;;;1.89;52.81
20023;BME280;10172;42.054;24.546;2024-01-30T04:08:45;100340.13;;;1.47;53.79
20023;BME280;10172;42.054;24.546;2024-01-30T04:11:10;100344.81;;;1.36;54.91
20023;BME280;10172;42.054;24.546;2024-01-30T04:13:36;100345.78;;;1.35;55.50
20023;BME280;10172;42.054;24.546;2024-01-30T04:16:02;100353.84;;;1.34;55.61
20023;BME280;10172;42.054;24.546;2024-01-30T04:18:28;100352.09;;;0.97;57.35
20023;BME280;10172;42.054;24.546;2024-01-30T04:20:54;100346.59;;;1.36;55.51
20023;BME280;10172;42.054;24.546;2024-01-30T04:23:19;100334.97;;;2.03;52.87
20023;BME280;10172;42.054;24.546;2024-01-30T04:25:44;100349.47;;;0.37;58.93
20023;BME280;10172;42.054;24.546;2024-01-30T04:28:10;100353.41;;;0.03;60.44
20023;BME280;10172;42.054;24.546;2024-01-30T04:30:39;100347.53;;;0.31;59.66
20023;BME280;10172;42.054;24.546;2024-01-30T04:33:04;100348.69;;;0.74;59.19
20023;BME280;10172;42.054;24.546;2024-01-30T04:35:30;100350.66;;;1.09;57.83
20023;BME280;10172;42.054;24.546;2024-01-30T04:37:55;100353.28;;;0.27;60.12
20023;BME280;10172;42.054;24.546;2024-01-30T04:40:21;100351.66;;;0.26;61.35
20023;BME280;10172;42.054;24.546;2024-01-30T04:42:46;100353.06;;;0.36;61.13
20023;BME280;10172;42.054;24.546;2024-01-30T04:45:12;100358.13;;;0.60;59.81
20023;BME280;10172;42.054;24.546;2024-01-30T04:47:37;100362.16;;;0.18;60.51
20023;BME280;10172;42.054;24.546;2024-01-30T04:50:05;100363.28;;;0.46;59.55
20023;BME280;10172;42.054;24.546;2024-01-30T04:52:31;100364.50;;;0.58;59.21
20023;BME280;10172;42.054;24.546;2024-01-30T04:54:56;100363.47;;;1.04;57.22
20023;BME280;10172;42.054;24.546;2024-01-30T04:57:22;100369.81;;;0.50;59.82
20023;BME280;10172;42.054;24.546;2024-01-30T04:59:47;100371.94;;;0.24;60.87
20023;BME280;10172;42.054;24.546;2024-01-30T05:02:12;100361.41;;;0.32;60.98
20023;BME280;10172;42.054;24.546;2024-01-30T05:04:38;100374.91;;;0.43;61.20
20023;BME280;10172;42.054;24.546;2024-01-30T05:07:03;100366.19;;;0.51;61.50
20023;BME280;10172;42.054;24.546;2024-01-30T05:09:29;100371.97;;;0.84;60.56
20023;BME280;10172;42.054;24.546;2024-01-30T05:11:54;100378.53;;;1.02;59.33
20023;BME280;10172;42.054;24.546;2024-01-30T05:14:20;100380.00;;;1.19;57.34
20023;BME280;10172;42.054;24.546;2024-01-30T05:16:45;100380.22;;;1.32;57.40
20023;BME280;10172;42.054;24.546;2024-01-30T05:19:13;100378.03;;;1.51;54.59
20023;BME280;10172;42.054;24.546;2024-01-30T05:21:39;100372.50;;;1.02;56.55
20023;BME280;10172;42.054;24.546;2024-01-30T05:24:05;100372.25;;;1.41;57.10
20023;BME280;10172;42.054;24.546;2024-01-30T05:26:30;100369.38;;;1.50;57.00
20023;BME280;10172;42.054;24.546;2024-01-30T05:28:55;100376.06;;;1.53;56.54
20023;BME280;10172;42.054;24.546;2024-01-30T05:31:21;100379.09;;;0.52;60.69
20023;BME280;10172;42.054;24.546;2024-01-30T05:33:46;100389.47;;;1.06;57.88
20023;BME280;10172;42.054;24.546;2024-01-30T05:36:12;100369.16;;;0.71;58.36
20023;BME280;10172;42.054;24.546;2024-01-30T05:38:38;100383.41;;;0.15;60.87
20023;BME280;10172;42.054;24.546;2024-01-30T05:41:04;100378.34;;;0.44;60.74
20023;BME280;10172;42.054;24.546;2024-01-30T05:43:29;100380.66;;;0.84;58.66
20023;BME280;10172;42.054;24.546;2024-01-30T05:45:54;100372.81;;;0.39;59.89
20023;BME280;10172;42.054;24.546;2024-01-30T05:48:20;100385.78;;;0.55;60.56
20023;BME280;10172;42.054;24.546;2024-01-30T05:50:45;100389.44;;;0.46;61.04
20023;BME280;10172;42.054;24.546;2024-01-30T05:53:11;100385.66;;;-0.05;63.29
20023;BME280;10172;42.054;24.546;2024-01-30T05:55:36;100381.41;;;-0.06;62.83
20023;BME280;10172;42.054;24.546;2024-01-30T05:58:02;100378.03;;;0.84;60.52
20023;BME280;10172;42.054;24.546;2024-01-30T06:00:27;100382.41;;;0.24;60.55
20023;BME280;10172;42.054;24.546;2024-01-30T06:02:53;100375.41;;;0.84;59.30
20023;BME280;10172;42.054;24.546;2024-01-30T06:05:18;100377.84;;;0.71;59.07
20023;BME280;10172;42.054;24.546;2024-01-30T06:07:43;100373.69;;;1.28;57.39
20023;BME280;10172;42.054;24.546;2024-01-30T06:10:09;100380.44;;;1.08;57.55
20023;BME280;10172;42.054;24.546;2024-01-30T06:12:35;100378.59;;;1.46;57.14
20023;BME280;10172;42.054;24.546;2024-01-30T06:15:01;100380.91;;;1.26;55.70
20023;BME280;10172;42.054;24.546;2024-01-30T06:17:26;100384.41;;;1.04;56.68
20023;BME280;10172;42.054;24.546;2024-01-30T06:19:51;100381.19;;;0.34;60.38
20023;BME280;10172;42.054;24.546;2024-01-30T06:22:17;100380.72;;;0.31;61.04
20023;BME280;10172;42.054;24.546;2024-01-30T06:24:43;100382.00;;;0.80;60.86
20023;BME280;10172;42.054;24.546;2024-01-30T06:27:10;100393.56;;;1.23;59.72
20023;BME280;10172;42.054;24.546;2024-01-30T06:29:35;100385.47;;;1.47;58.29
20023;BME280;10172;42.054;24.546;2024-01-30T06:32:01;100387.91;;;1.63;56.87
20023;BME280;10172;42.054;24.546;2024-01-30T06:34:26;100380.59;;;1.59;56.86
20023;BME280;10172;42.054;24.546;2024-01-30T06:36:52;100397.72;;;1.32;58.37
20023;BME280;10172;42.054;24.546;2024-01-30T06:39:17;100391.88;;;1.45;57.00
20023;BME280;10172;42.054;24.546;2024-01-30T06:41:43;100392.03;;;1.87;55.19
20023;BME280;10172;42.054;24.546;2024-01-30T06:44:09;100394.59;;;1.66;54.72
20023;BME280;10172;42.054;24.546;2024-01-30T06:46:35;100402.53;;;1.58;54.48
20023;BME280;10172;42.054;24.546;2024-01-30T06:49:00;100399.47;;;1.54;54.56
20023;BME280;10172;42.054;24.546;2024-01-30T06:51:26;100399.19;;;1.64;54.37
20023;BME280;10172;42.054;24.546;2024-01-30T06:53:51;100400.63;;;1.81;54.06
20023;BME280;10172;42.054;24.546;2024-01-30T06:56:17;100397.69;;;2.05;52.79
20023;BME280;10172;42.054;24.546;2024-01-30T06:58:47;100395.56;;;1.94;52.23
20023;BME280;10172;42.054;24.546;2024-01-30T07:01:14;100400.88;;;1.86;52.65
20023;BME280;10172;42.054;24.546;2024-01-30T07:03:39;100402.44;;;2.31;52.42
20023;BME280;10172;42.054;24.546;2024-01-30T07:06:05;100412.94;;;2.31;51.73
20023;BME280;10172;42.054;24.546;2024-01-30T07:08:30;100413.31;;;2.63;51.28
20023;BME280;10172;42.054;24.546;2024-01-30T07:10:56;100409.41;;;2.24;51.24
20023;BME280;10172;42.054;24.546;2024-01-30T07:13:21;100406.09;;;2.51;50.48
20023;BME280;10172;42.054;24.546;2024-01-30T07:15:47;100405.94;;;2.38;50.00
20023;BME280;10172;42.054;24.546;2024-01-30T07:18:12;100408.53;;;2.52;49.67
20023;BME280;10172;42.054;24.546;2024-01-30T07:20:39;100411.38;;;2.36;50.29
20023;BME280;10172;42.054;24.546;2024-01-30T07:23:11;100413.59;;;2.33;50.36
20023;BME280;10172;42.054;24.546;2024-01-30T07:25:41;100410.22;;;2.39;49.32
20023;BME280;10172;42.054;24.546;2024-01-30T07:28:08;100400.06;;;2.36;50.75
20023;BME280;10172;42.054;24.546;2024-01-30T07:30:35;100411.91;;;2.46;49.23
20023;BME280;10172;42.054;24.546;2024-01-30T07:33:00;100409.38;;;2.38;49.99
20023;BME280;10172;42.054;24.546;2024-01-30T07:35:25;100414.66;;;2.24;48.74
20023;BME280;10172;42.054;24.546;2024-01-30T07:37:51;100416.50;;;2.23;49.32
20023;BME280;10172;42.054;24.546;2024-01-30T07:40:17;100412.09;;;2.09;49.43
20023;BME280;10172;42.054;24.546;2024-01-30T07:42:42;100412.28;;;1.93;50.97
20023;BME280;10172;42.054;24.546;2024-01-30T07:45:08;100408.41;;;2.82;50.16
20023;BME280;10172;42.054;24.546;2024-01-30T07:47:34;100404.91;;;2.53;48.47
20023;BME280;10172;42.054;24.546;2024-01-30T07:49:59;100410.47;;;2.44;49.83
20023;BME280;10172;42.054;24.546;2024-01-30T07:52:25;100400.19;;;1.92;50.32
20023;BME280;10172;42.054;24.546;2024-01-30T07:54:53;100411.38;;;1.71;50.09
20023;BME280;10172;42.054;24.546;2024-01-30T07:57:18;100410.00;;;2.04;49.39
20023;BME280;10172;42.054;24.546;2024-01-30T07:59:44;100408.41;;;1.89;51.56
20023;BME280;10172;42.054;24.546;2024-01-30T08:02:13;100418.31;;;2.08;52.46
20023;BME280;10172;42.054;24.546;2024-01-30T08:04:39;100418.06;;;2.39;51.10
20023;BME280;10172;42.054;24.546;2024-01-30T08:07:04;100419.69;;;2.19;49.31
20023;BME280;10172;42.054;24.546;2024-01-30T08:09:30;100411.50;;;2.28;48.69
20023;BME280;10172;42.054;24.546;2024-01-30T08:11:55;100409.88;;;2.27;49.96
20023;BME280;10172;42.054;24.546;2024-01-30T08:14:20;100404.75;;;2.04;48.76
20023;BME280;10172;42.054;24.546;2024-01-30T08:16:46;100410.41;;;1.72;49.31
20023;BME280;10172;42.054;24.546;2024-01-30T08:19:11;100404.22;;;2.09;49.39
20023;BME280;10172;42.054;24.546;2024-01-30T08:21:37;100408.56;;;2.38;48.21
20023;BME280;10172;42.054;24.546;2024-01-30T08:24:06;100408.81;;;2.07;48.87
20023;BME280;10172;42.054;24.546;2024-01-30T08:26:32;100397.84;;;2.33;49.06
20023;BME280;10172;42.054;24.546;2024-01-30T08:28:57;100391.63;;;2.40;48.79
20023;BME280;10172;42.054;24.546;2024-01-30T08:31:23;100395.56;;;2.30;48.19
20023;BME280;10172;42.054;24.546;2024-01-30T08:33:48;100398.50;;;2.20;49.14
20023;BME280;10172;42.054;24.546;2024-01-30T08:36:15;100395.44;;;2.38;47.98
20023;BME280;10172;42.054;24.546;2024-01-30T08:38:40;100398.03;;;2.52;47.86
20023;BME280;10172;42.054;24.546;2024-01-30T08:41:09;100403.91;;;2.54;47.48
20023;BME280;10172;42.054;24.546;2024-01-30T08:43:35;100404.75;;;2.40;47.99
20023;BME280;10172;42.054;24.546;2024-01-30T08:46:01;100396.34;;;2.45;48.12
20023;BME280;10172;42.054;24.546;2024-01-30T08:48:27;100397.59;;;2.70;46.91
20023;BME280;10172;42.054;24.546;2024-01-30T08:50:52;100401.09;;;2.56;47.62
20023;BME280;10172;42.054;24.546;2024-01-30T08:53:18;100394.06;;;2.56;47.76
20023;BME280;10172;42.054;24.546;2024-01-30T08:55:44;100394.41;;;2.74;47.67
20023;BME280;10172;42.054;24.546;2024-01-30T08:58:09;100398.91;;;3.02;46.25
20023;BME280;10172;42.054;24.546;2024-01-30T09:00:35;100394.28;;;3.04;46.51
20023;BME280;10172;42.054;24.546;2024-01-30T09:03:01;100399.16;;;2.86;47.63
20023;BME280;10172;42.054;24.546;2024-01-30T09:05:26;100398.03;;;2.95;47.25
20023;BME280;10172;42.054;24.546;2024-01-30T09:07:51;100391.78;;;2.96;46.73
20023;BME280;10172;42.054;24.546;2024-01-30T09:10:17;100400.28;;;2.77;48.18
20023;BME280;10172;42.054;24.546;2024-01-30T09:12:42;100394.72;;;2.86;47.77
20023;BME280;10172;42.054;24.546;2024-01-30T09:15:08;100396.34;;;3.42;46.12
20023;BME280;10172;42.054;24.546;2024-01-30T09:17:33;100389.88;;;3.38;45.81
20023;BME280;10172;42.054;24.546;2024-01-30T09:19:59;100394.94;;;3.74;45.70
20023;BME280;10172;42.054;24.546;2024-01-30T09:22:24;100392.03;;;3.56;45.40
20023;BME280;10172;42.054;24.546;2024-01-30T09:24:50;100386.41;;;3.66;44.61
20023;BME280;10172;42.054;24.546;2024-01-30T09:27:16;100384.38;;;3.61;45.48
20023;BME280;10172;42.054;24.546;2024-01-30T09:29:42;100382.00;;;3.73;45.15
20023;BME280;10172;42.054;24.546;2024-01-30T09:32:07;100379.25;;;3.94;43.79
20023;BME280;10172;42.054;24.546;2024-01-30T10:08:44;100339.38;;;4.77;40.98
20023;BME280;10172;42.054;24.546;2024-01-30T10:11:09;100332.47;;;4.89;40.54
20023;BME280;10172;42.054;24.546;2024-01-30T10:13:35;100333.69;;;5.06;40.61
20023;BME280;10172;42.054;24.546;2024-01-30T10:16:00;100337.31;;;5.25;40.02
20023;BME280;10172;42.054;24.546;2024-01-30T10:18:28;100340.31;;;5.41;38.81
20023;BME280;10172;42.054;24.546;2024-01-30T10:20:54;100337.13;;;5.20;38.79
20023;BME280;10172;42.054;24.546;2024-01-30T10:23:19;100328.84;;;4.70;40.35
20023;BME280;10172;42.054;24.546;2024-01-30T10:25:45;100332.66;;;5.20;40.28
20023;BME280;10172;42.054;24.546;2024-01-30T10:28:11;100329.22;;;5.00;39.49
20023;BME280;10172;42.054;24.546;2024-01-30T10:30:36;100329.44;;;5.05;39.46
20023;BME280;10172;42.054;24.546;2024-01-30T10:33:02;100332.06;;;4.99;39.63
20023;BME280;10172;42.054;24.546;2024-01-30T10:35:27;100321.34;;;4.94;39.38
20023;BME280;10172;42.054;24.546;2024-01-30T10:37:56;100328.00;;;4.83;40.70
20023;BME280;10172;42.054;24.546;2024-01-30T10:40:28;100323.50;;;5.29;40.14
20023;BME280;10172;42.054;24.546;2024-01-30T10:42:55;100332.03;;;5.31;39.12
20023;BME280;10172;42.054;24.546;2024-01-30T10:45:22;100324.53;;;5.22;40.21
20023;BME280;10172;42.054;24.546;2024-01-30T10:47:55;100329.97;;;5.46;39.15
20023;BME280;10172;42.054;24.546;2024-01-30T10:50:26;100328.19;;;5.21;39.42
20023;BME280;10172;42.054;24.546;2024-01-30T10:52:54;100330.84;;;5.01;40.07
20023;BME280;10172;42.054;24.546;2024-01-30T10:55:21;100329.59;;;5.23;38.99
20023;BME280;10172;42.054;24.546;2024-01-30T10:57:47;100323.72;;;5.21;39.77
20023;BME280;10172;42.054;24.546;2024-01-30T11:00:14;100320.84;;;5.42;38.87
20023;BME280;10172;42.054;24.546;2024-01-30T11:02:45;100312.56;;;5.26;38.60
20023;BME280;10172;42.054;24.546;2024-01-30T11:05:10;100316.09;;;5.64;37.78
20023;BME280;10172;42.054;24.546;2024-01-30T11:07:38;100314.06;;;5.66;38.02
20023;BME280;10172;42.054;24.546;2024-01-30T11:10:04;100305.44;;;5.39;38.12
20023;BME280;10172;42.054;24.546;2024-01-30T11:12:33;100311.69;;;5.52;38.07
20023;BME280;10172;42.054;24.546;2024-01-30T11:15:18;100306.19;;;5.60;37.77
20023;BME280;10172;42.054;24.546;2024-01-30T11:20:16;100318.56;;;5.66;38.61
20023;BME280;10172;42.054;24.546;2024-01-30T11:22:50;100315.78;;;5.28;37.23
20023;BME280;10172;42.054;24.546;2024-01-30T11:25:17;100317.66;;;5.08;39.30
20023;BME280;10172;42.054;24.546;2024-01-30T11:27:43;100313.56;;;5.31;38.31
20023;BME280;10172;42.054;24.546;2024-01-30T11:30:10;100301.09;;;6.09;37.37
20023;BME280;10172;42.054;24.546;2024-01-30T11:32:36;100305.56;;;6.15;36.82
20023;BME280;10172;42.054;24.546;2024-01-30T11:35:05;100303.34;;;6.12;37.11
20023;BME280;10172;42.054;24.546;2024-01-30T11:37:37;100299.06;;;5.67;37.13
20023;BME280;10172;42.054;24.546;2024-01-30T11:40:04;100306.22;;;5.53;37.09
20023;BME280;10172;42.054;24.546;2024-01-30T11:42:29;100302.03;;;5.19;38.68
20023;BME280;10172;42.054;24.546;2024-01-30T11:44:55;100291.00;;;5.48;38.66
20023;BME280;10172;42.054;24.546;2024-01-30T11:47:20;100286.50;;;5.62;38.45
20023;BME280;10172;42.054;24.546;2024-01-30T11:49:47;100298.09;;;5.55;38.48
20023;BME280;10172;42.054;24.546;2024-01-30T11:52:13;100287.44;;;6.25;36.38
20023;BME280;10172;42.054;24.546;2024-01-30T11:54:41;100288.88;;;5.77;37.48
20023;BME280;10172;42.054;24.546;2024-01-30T11:57:07;100272.06;;;6.09;37.48
20023;BME280;10172;42.054;24.546;2024-01-30T11:59:32;100276.47;;;5.84;37.46
20023;BME280;10172;42.054;24.546;2024-01-30T12:01:57;100276.78;;;5.56;37.63
20023;BME280;10172;42.054;24.546;2024-01-30T12:04:23;100268.69;;;5.44;38.51
20023;BME280;10172;42.054;24.546;2024-01-30T12:06:51;100271.88;;;5.66;38.82
20023;BME280;10172;42.054;24.546;2024-01-30T12:09:17;100262.53;;;5.64;38.27
20023;BME280;10172;42.054;24.546;2024-01-30T12:11:49;100248.06;;;5.86;38.03
20023;BME280;10172;42.054;24.546;2024-01-30T12:14:18;100246.75;;;6.01;37.40
20023;BME280;10172;42.054;24.546;2024-01-30T12:16:48;100242.63;;;5.74;37.09
20023;BME280;10172;42.054;24.546;2024-01-30T12:19:24;100241.09;;;5.98;36.73
20023;BME280;10172;42.054;24.546;2024-01-30T12:21:56;100230.63;;;5.78;37.82
20023;BME280;10172;42.054;24.546;2024-01-30T12:24:25;100224.09;;;5.87;36.66
20023;BME280;10172;42.054;24.546;2024-01-30T12:26:50;100226.47;;;5.58;38.09
20023;BME280;10172;42.054;24.546;2024-01-30T12:29:17;100216.88;;;6.07;38.27
20023;BME280;10172;42.054;24.546;2024-01-30T12:31:42;100210.38;;;6.77;36.43
20023;BME280;10172;42.054;24.546;2024-01-30T12:34:09;100204.47;;;6.39;35.93
20023;BME280;10172;42.054;24.546;2024-01-30T12:36:34;100211.94;;;6.18;37.14
20023;BME280;10172;42.054;24.546;2024-01-30T12:39:00;100203.75;;;6.50;36.35
20023;BME280;10172;42.054;24.546;2024-01-30T12:41:26;100200.19;;;6.63;36.26
20023;BME280;10172;42.054;24.546;2024-01-30T12:43:54;100197.66;;;6.50;37.59
20023;BME280;10172;42.054;24.546;2024-01-30T12:46:19;100194.63;;;6.89;35.41
20023;BME280;10172;42.054;24.546;2024-01-30T12:48:45;100190.38;;;7.54;34.69
20023;BME280;10172;42.054;24.546;2024-01-30T12:51:10;100184.91;;;7.37;34.13
20023;BME280;10172;42.054;24.546;2024-01-30T12:53:36;100191.69;;;6.97;35.27
20023;BME280;10172;42.054;24.546;2024-01-30T12:56:01;100193.44;;;6.42;35.27
20023;BME280;10172;42.054;24.546;2024-01-30T12:58:26;100191.91;;;6.10;36.76
20023;BME280;10172;42.054;24.546;2024-01-30T13:00:53;100189.78;;;6.68;36.10
20023;BME280;10172;42.054;24.546;2024-01-30T13:03:19;100192.03;;;6.64;36.06
20023;BME280;10172;42.054;24.546;2024-01-30T13:05:44;100187.16;;;6.43;37.10
20023;BME280;10172;42.054;24.546;2024-01-30T13:08:09;100187.94;;;7.05;35.77
20023;BME280;10172;42.054;24.546;2024-01-30T13:10:35;100190.44;;;7.00;34.96
20023;BME280;10172;42.054;24.546;2024-01-30T13:13:00;100186.56;;;6.41;36.33
20023;BME280;10172;42.054;24.546;2024-01-30T13:15:25;100180.16;;;6.73;35.78
20023;BME280;10172;42.054;24.546;2024-01-30T13:17:51;100183.06;;;6.23;35.86
20023;BME280;10172;42.054;24.546;2024-01-30T13:20:19;100179.38;;;5.68;37.12